LIMZ/CUF METAR and TAF weather

Enter ICAO airport designator
Station Type Date Time Source
LIMZ METAR 2022/01/29 12:50 UTC NOAA

LIMZ 291250Z 36005KT 330V030 CAVOK 10/M02 Q1028


Station Type Date Time Source
LIMZ Decoded METAR 2022/01/29 12:50 UTC NOAA

Cuneo / Levaldigi, Italy (LIMZ) 44-32-47N 007-37-20E
Jan 29, 2022 - 07:50 AM EST / 2022.01.29 1250 UTC
Wind: from the N (360 degrees) at 6 MPH (5 KT) (direction variable):0
Visibility: greater than 7 mile(s):0
Temperature: 50 F (10 C)
Dew Point: 28 F (-2 C)
Relative Humidity: 42%
Pressure (altimeter): 30.36 in. Hg (1028 hPa)
ob: LIMZ 291250Z 36005KT 330V030 CAVOK 10/M02 Q1028
cycle: 13

Station Type Date Time Source
LIMZ TAF 2022/01/29 12:21 UTC NOAA

TAF LIMZ 291100Z 2912/3012 VRB05KT CAVOK
TEMPO 2922/3008 3000 BR

Example: see airport list